createdAt,value
2022-10-04T00:00:39.709Z,12.93
2022-10-04T00:05:41.909Z,10.73
2022-10-04T00:10:44.305Z,6.50
2022-10-04T00:15:50.532Z,6.30
2022-10-04T00:20:53.250Z,7.95
2022-10-04T00:25:59.796Z,7.60
2022-10-04T00:31:10.632Z,7.93
2022-10-04T00:36:24.266Z,9.82
2022-10-04T00:41:28.403Z,5.68
2022-10-04T00:46:31.884Z,7.45
2022-10-04T00:51:44.687Z,6.40
2022-10-04T00:56:51.695Z,8.65
2022-10-04T01:02:02.649Z,4.55
2022-10-04T01:07:07.043Z,6.40
2022-10-04T01:12:27.859Z,8.02
2022-10-04T01:17:29.512Z,7.25
2022-10-04T01:22:40.451Z,7.55
2022-10-04T01:27:45.000Z,7.15
2022-10-04T01:32:46.551Z,7.18
2022-10-04T01:37:47.980Z,9.38
2022-10-04T01:42:55.717Z,7.85
2022-10-04T01:48:01.661Z,8.02
2022-10-04T01:53:28.413Z,3.72
2022-10-04T01:58:39.789Z,3.42
2022-10-04T02:03:48.669Z,7.95
2022-10-04T02:08:57.657Z,7.93
2022-10-04T02:14:00.516Z,6.70
2022-10-04T02:19:03.607Z,4.93
2022-10-04T02:24:07.772Z,6.07
2022-10-04T02:29:10.103Z,7.45
2022-10-04T02:34:12.016Z,6.70
2022-10-04T02:39:21.533Z,5.50
2022-10-04T02:44:29.915Z,6.82
2022-10-04T02:49:42.984Z,4.63
2022-10-04T02:54:50.515Z,7.57
2022-10-04T03:00:22.129Z,5.88
2022-10-04T03:05:24.495Z,4.55
2022-10-04T03:10:26.354Z,6.13
2022-10-04T03:15:28.297Z,9.73
2022-10-04T03:20:29.908Z,6.72
2022-10-04T03:25:45.142Z,4.30
2022-10-04T03:30:48.180Z,7.57
2022-10-04T03:35:58.958Z,8.00
2022-10-04T03:46:07.930Z,8.43
2022-10-04T03:51:16.171Z,6.80
2022-10-04T03:56:23.182Z,6.07
2022-10-04T04:01:34.486Z,7.25
2022-10-04T04:06:53.058Z,6.47
2022-10-04T04:11:57.136Z,10.05
2022-10-04T04:17:37.729Z,10.20
2022-10-04T04:22:43.509Z,16.08
2022-10-04T04:27:49.583Z,11.60
2022-10-04T04:32:55.231Z,15.77
2022-10-04T04:38:16.776Z,17.52
2022-10-04T04:43:22.756Z,14.65
2022-10-04T04:48:24.414Z,30.48
2022-10-04T04:53:30.154Z,18.33
2022-10-04T04:58:42.580Z,12.55
2022-10-04T05:03:44.301Z,11.68
2022-10-04T05:08:51.100Z,22.27
2022-10-04T05:14:19.640Z,8.85
2022-10-04T05:19:28.833Z,9.32
2022-10-04T05:24:37.495Z,6.68
2022-10-04T05:29:50.759Z,7.78
2022-10-04T05:34:54.599Z,8.80
2022-10-04T05:40:20.274Z,7.97
2022-10-04T05:46:28.823Z,7.40
2022-10-04T05:52:03.642Z,6.32
2022-10-04T05:57:31.393Z,6.85
2022-10-04T06:09:35.019Z,9.20
2022-10-04T06:14:45.518Z,8.02
2022-10-04T06:20:10.426Z,10.90
2022-10-04T06:25:27.446Z,21.50
2022-10-04T06:30:35.029Z,4.78
2022-10-04T06:35:36.684Z,5.40
2022-10-04T06:40:41.177Z,4.10
2022-10-04T06:46:01.422Z,11.75
2022-10-04T06:51:45.135Z,5.60
2022-10-04T06:56:56.115Z,4.65
2022-10-04T07:02:07.461Z,5.43
2022-10-04T07:07:36.125Z,3.50
2022-10-04T07:12:42.840Z,5.30
2022-10-04T07:17:48.697Z,7.00
2022-10-04T07:23:01.629Z,4.35
2022-10-04T07:28:30.102Z,5.68
2022-10-04T07:33:41.801Z,4.95
2022-10-04T07:39:06.620Z,4.10
2022-10-04T07:44:38.046Z,6.85
2022-10-04T07:49:43.371Z,6.18
2022-10-04T07:54:57.611Z,3.85
2022-10-04T08:00:19.344Z,5.03
2022-10-04T08:05:34.934Z,5.30
2022-10-04T08:11:20.153Z,6.30
2022-10-04T08:16:38.533Z,5.78
2022-10-04T08:22:00.903Z,5.72
2022-10-04T08:27:18.340Z,6.03
2022-10-04T08:32:38.695Z,7.72
2022-10-04T08:38:03.464Z,7.35
2022-10-04T08:43:19.581Z,4.68
2022-10-04T08:49:03.544Z,5.13
2022-10-04T08:54:39.343Z,12.73
2022-10-04T09:00:13.891Z,5.15
2022-10-04T09:05:54.703Z,6.25
2022-10-04T09:11:13.981Z,6.22
2022-10-04T09:16:33.353Z,7.07
2022-10-04T09:21:48.827Z,8.03
2022-10-04T09:27:54.192Z,5.82
2022-10-04T09:33:32.098Z,8.32
2022-10-04T09:39:28.920Z,6.05
2022-10-04T09:44:57.161Z,6.38
2022-10-04T09:50:06.023Z,6.57
2022-10-04T09:55:08.155Z,8.75
2022-10-04T10:00:34.494Z,7.57
2022-10-04T10:05:54.172Z,4.88
2022-10-04T10:11:26.291Z,5.40
2022-10-04T10:16:40.968Z,6.03
2022-10-04T10:22:31.443Z,5.18
2022-10-04T10:32:53.192Z,3.55
2022-10-04T10:38:04.735Z,7.82
2022-10-04T10:43:18.009Z,4.47
2022-10-04T10:48:31.576Z,5.85
2022-10-04T10:53:36.119Z,6.03
2022-10-04T10:58:46.820Z,5.93
2022-10-04T11:04:03.678Z,8.13
2022-10-04T11:09:52.999Z,6.60
2022-10-04T11:15:32.932Z,7.43
2022-10-04T11:20:52.796Z,10.38
2022-10-04T11:26:06.096Z,5.45
2022-10-04T11:31:46.763Z,8.32
2022-10-04T11:37:16.649Z,7.28
2022-10-04T11:42:38.698Z,5.25
2022-10-04T11:48:01.550Z,5.97
2022-10-04T11:53:33.560Z,6.80
2022-10-04T11:59:00.103Z,5.72
2022-10-04T12:04:20.900Z,6.60
2022-10-04T12:09:40.846Z,8.30
2022-10-04T12:15:13.796Z,6.68
2022-10-04T12:20:56.899Z,6.03
2022-10-04T12:26:19.993Z,6.53
2022-10-04T12:31:46.395Z,6.40
2022-10-04T12:37:11.534Z,9.27
2022-10-04T12:42:47.419Z,5.32
2022-10-04T12:47:48.889Z,7.15
2022-10-04T12:53:03.758Z,5.03
2022-10-04T12:58:24.230Z,6.35
2022-10-04T13:08:42.510Z,7.55
2022-10-04T13:14:15.025Z,9.07
2022-10-04T13:19:19.361Z,7.75
2022-10-04T13:24:55.346Z,4.05
2022-10-04T13:30:06.308Z,6.13
2022-10-04T13:35:20.437Z,9.70
2022-10-04T13:40:32.561Z,6.43
2022-10-04T13:45:54.462Z,7.30
2022-10-04T13:51:47.529Z,7.57
2022-10-04T13:57:11.165Z,5.50
2022-10-04T14:02:13.898Z,5.03
2022-10-04T14:07:44.893Z,9.40
2022-10-04T14:13:06.064Z,9.52
2022-10-04T14:18:52.984Z,4.50
2022-10-04T14:24:06.498Z,7.35
2022-10-04T14:29:40.223Z,6.05
2022-10-04T14:35:15.484Z,6.50
2022-10-04T14:40:44.844Z,8.45
2022-10-04T14:46:16.945Z,8.27
2022-10-04T14:51:44.597Z,7.28
2022-10-04T14:57:16.290Z,3.88
2022-10-04T15:02:30.242Z,6.22
2022-10-04T15:07:38.404Z,5.95
2022-10-04T15:13:15.971Z,8.38
2022-10-04T15:19:04.259Z,7.93
2022-10-04T15:24:24.110Z,3.92
2022-10-04T15:29:31.710Z,5.97
2022-10-04T15:34:48.943Z,9.07
2022-10-04T15:40:08.882Z,5.00
2022-10-04T15:45:26.608Z,6.70
2022-10-04T15:51:11.127Z,7.57
2022-10-04T15:56:33.192Z,6.82
2022-10-04T16:01:59.478Z,4.40
2022-10-04T16:07:24.540Z,10.73
2022-10-04T16:13:15.090Z,4.53
2022-10-04T16:23:43.790Z,4.72
2022-10-04T16:29:08.475Z,10.60
2022-10-04T16:34:12.676Z,6.07
2022-10-04T16:39:53.571Z,5.05
2022-10-04T16:45:01.001Z,6.88
2022-10-04T16:50:04.937Z,10.30
2022-10-04T16:55:34.495Z,5.82
2022-10-04T17:00:38.200Z,9.00
2022-10-04T17:06:14.247Z,11.57
2022-10-04T17:11:35.568Z,11.52
2022-10-04T17:16:48.834Z,8.50
2022-10-04T17:21:58.734Z,7.47
2022-10-04T17:27:18.716Z,9.33
2022-10-04T17:32:36.280Z,10.93
2022-10-04T17:37:52.892Z,7.32
2022-10-04T17:43:12.972Z,9.90
2022-10-04T17:48:36.434Z,7.82
2022-10-04T17:54:03.353Z,7.60
2022-10-04T17:59:12.469Z,10.52
2022-10-04T18:04:17.136Z,9.63
2022-10-04T18:09:33.876Z,12.70
2022-10-04T18:14:35.216Z,19.30
2022-10-04T18:19:50.185Z,14.57
2022-10-04T18:25:26.710Z,12.73
2022-10-04T18:30:28.225Z,12.48
2022-10-04T18:35:33.140Z,9.43
2022-10-04T18:40:42.237Z,8.70
2022-10-04T18:46:08.001Z,17.95
2022-10-04T18:51:31.074Z,24.15
2022-10-04T18:56:52.583Z,26.95
2022-10-04T19:02:25.659Z,21.65
2022-10-04T19:07:33.047Z,16.17
2022-10-04T19:12:48.109Z,13.10
2022-10-04T19:18:17.798Z,11.93
2022-10-04T19:23:34.727Z,15.68
2022-10-04T19:28:38.616Z,21.98
2022-10-04T19:33:50.313Z,21.80
2022-10-04T19:39:19.691Z,18.13
2022-10-04T19:44:52.066Z,15.55
2022-10-04T19:50:06.632Z,15.68
2022-10-04T19:55:43.743Z,18.40
2022-10-04T20:00:45.493Z,11.23
2022-10-04T20:05:53.280Z,8.93
2022-10-04T20:11:14.665Z,12.20
2022-10-04T20:16:54.504Z,11.50
2022-10-04T20:22:01.982Z,14.60
2022-10-04T20:27:06.746Z,9.15
2022-10-04T20:32:34.545Z,11.82
2022-10-04T20:37:45.077Z,9.48
2022-10-04T20:43:15.477Z,10.82
2022-10-04T20:48:29.707Z,9.60
2022-10-04T20:53:32.669Z,7.20
2022-10-04T20:58:37.752Z,13.13
2022-10-04T21:03:39.464Z,10.95
2022-10-04T21:08:41.127Z,10.15
2022-10-04T21:13:52.054Z,9.48
2022-10-04T21:18:53.507Z,14.15
2022-10-04T21:23:54.965Z,15.85
2022-10-04T21:28:58.223Z,5.78
2022-10-04T21:33:59.671Z,7.78
2022-10-04T21:39:01.115Z,11.20
2022-10-04T21:44:02.549Z,8.18
2022-10-04T21:49:05.104Z,5.20
2022-10-04T21:54:06.783Z,8.10
2022-10-04T21:59:08.427Z,8.70
2022-10-04T22:04:09.937Z,9.02
2022-10-04T22:09:11.492Z,7.18
2022-10-04T22:14:13.018Z,23.10
2022-10-04T22:19:14.474Z,11.60
2022-10-04T22:24:20.285Z,7.45
2022-10-04T22:29:21.848Z,9.15
2022-10-04T22:34:23.310Z,8.05
2022-10-04T22:39:25.159Z,11.90
2022-10-04T22:44:31.266Z,8.27
2022-10-04T22:49:35.558Z,15.25
2022-10-04T22:54:37.831Z,8.23
2022-10-04T22:59:42.052Z,12.07
2022-10-04T23:04:52.697Z,7.72
2022-10-04T23:14:55.570Z,7.13
2022-10-04T23:20:01.073Z,11.43
2022-10-04T23:25:03.179Z,7.53
2022-10-04T23:30:06.448Z,8.63
2022-10-04T23:35:17.223Z,10.43
2022-10-04T23:40:21.023Z,8.20
2022-10-04T23:45:25.371Z,8.10
2022-10-04T23:50:38.223Z,8.57
2022-10-04T23:55:42.511Z,6.55
